Time;durP1;ratioP1;P1;durP2;ratioP2;P2;SDS_P1;SDS_P2;PMS_P1;PMS_P2;Temp;Humidity;BMP_temperature;BMP_pressure;BME280_temperature;BME280_humidity;BME280_pressure;Samples;Min_cycle;Max_cycle;Signal;HPM_P1;HPM_P2
2022/10/01 00:01:07;;;;;;;11.25;8.43;;;;;;;;;;4986811;28;20163;-68
2022/10/01 00:03:35;;;;;;;11.20;8.23;;;;;;;;;;4982834;28;20129;-69
2022/10/01 00:06:05;;;;;;;9.25;7.78;;;;;;;;;;4978987;28;20779;-69
2022/10/01 00:08:32;;;;;;;9.70;8.25;;;;;;;;;;4982378;28;20134;-69
2022/10/01 00:11:00;;;;;;;11.65;9.10;;;;;;;;;;4985902;28;20078;-68
2022/10/01 00:13:29;;;;;;;10.07;8.75;;;;;;;;;;4985115;28;20426;-69
2022/10/01 00:15:56;;;;;;;11.40;7.95;;;;;;;;;;4987315;28;20054;-70
2022/10/01 00:18:22;;;;;;;9.73;8.45;;;;;;;;;;5001318;28;20051;-67
2022/10/01 00:20:49;;;;;;;9.88;8.00;;;;;;;;;;4987190;28;20058;-69
2022/10/01 00:23:16;;;;;;;9.65;6.90;;;;;;;;;;4985861;28;20406;-69
2022/10/01 00:25:42;;;;;;;8.60;6.32;;;;;;;;;;4983404;28;20074;-69
2022/10/01 00:28:10;;;;;;;8.40;6.80;;;;;;;;;;4985911;28;20050;-68
2022/10/01 00:30:44;;;;;;;7.00;6.22;;;;;;;;;;4984580;28;20051;-68
2022/10/01 00:33:11;;;;;;;8.90;6.78;;;;;;;;;;4983128;28;20465;-67
2022/10/01 00:35:37;;;;;;;8.02;6.15;;;;;;;;;;4984552;28;20042;-68
2022/10/01 00:38:04;;;;;;;12.73;6.78;;;;;;;;;;4985833;28;20050;-69
2022/10/01 00:40:30;;;;;;;7.10;5.95;;;;;;;;;;4984453;28;20109;-69
2022/10/01 00:42:57;;;;;;;5.88;5.28;;;;;;;;;;4986030;28;20069;-67
2022/10/01 00:45:24;;;;;;;7.32;6.15;;;;;;;;;;4984498;28;20069;-69
2022/10/01 00:47:54;;;;;;;7.07;6.13;;;;;;;;;;4986959;28;20549;-69
2022/10/01 00:50:31;;;;;;;8.07;5.35;;;;;;;;;;4988425;28;20085;-68
2022/10/01 00:52:59;;;;;;;5.70;5.10;;;;;;;;;;4986894;28;20138;-69
2022/10/01 00:55:36;;;;;;;5.90;5.28;;;;;;;;;;4989585;28;20050;-69
2022/10/01 00:58:03;;;;;;;7.53;5.22;;;;;;;;;;4987374;28;20093;-69
2022/10/01 01:00:30;;;;;;;6.35;5.22;;;;;;;;;;4986972;28;20132;-69
2022/10/01 01:02:57;;;;;;;5.75;4.75;;;;;;;;;;4968603;28;20502;-71
2022/10/01 01:05:24;;;;;;;6.82;4.97;;;;;;;;;;4984265;28;20125;-69
2022/10/01 01:07:52;;;;;;;5.03;4.53;;;;;;;;;;4988362;28;20050;-68
2022/10/01 01:10:48;;;;;;;7.00;5.45;;;;;;;;;;4987278;28;20070;-69
2022/10/01 01:13:25;;;;;;;5.82;4.95;;;;;;;;;;4957767;28;20133;-70
2022/10/01 01:16:08;;;;;;;5.75;4.70;;;;;;;;;;4987901;28;20050;-68
2022/10/01 01:19:02;;;;;;;7.30;4.88;;;;;;;;;;4984925;28;20513;-68
2022/10/01 01:21:43;;;;;;;6.80;5.13;;;;;;;;;;4986190;28;20104;-67
2022/10/01 01:24:12;;;;;;;6.03;4.95;;;;;;;;;;4987136;28;20130;-69
2022/10/01 01:26:39;;;;;;;6.30;5.10;;;;;;;;;;4987845;28;20485;-69
2022/10/01 01:29:26;;;;;;;6.35;5.18;;;;;;;;;;4988791;28;20417;-68
2022/10/01 01:31:55;;;;;;;9.60;5.60;;;;;;;;;;4970778;28;20067;-69
2022/10/01 01:34:25;;;;;;;6.75;5.60;;;;;;;;;;4968020;28;20520;-69
2022/10/01 01:36:58;;;;;;;6.85;5.35;;;;;;;;;;4987901;28;20046;-69
2022/10/01 01:39:26;;;;;;;5.43;4.93;;;;;;;;;;4983358;28;20086;-70
2022/10/01 01:41:55;;;;;;;6.65;4.80;;;;;;;;;;4987265;28;20051;-70
2022/10/01 01:44:23;;;;;;;6.38;4.82;;;;;;;;;;4985434;28;20074;-69
2022/10/01 01:46:50;;;;;;;5.25;4.75;;;;;;;;;;4988335;28;20576;-70
2022/10/01 01:49:19;;;;;;;8.95;5.03;;;;;;;;;;4968340;28;20055;-69
2022/10/01 01:52:16;;;;;;;7.80;5.07;;;;;;;;;;4986285;28;20108;-69
2022/10/01 01:54:43;;;;;;;8.80;5.10;;;;;;;;;;4969243;28;20104;-69
2022/10/01 01:57:12;;;;;;;5.22;4.72;;;;;;;;;;4987660;28;20422;-68
2022/10/01 01:59:39;;;;;;;5.32;4.82;;;;;;;;;;4968146;28;20051;-69
2022/10/01 02:02:07;;;;;;;5.88;5.28;;;;;;;;;;4987242;28;20049;-69
2022/10/01 02:04:48;;;;;;;5.25;4.43;;;;;;;;;;4983089;28;20054;-69
2022/10/01 02:07:46;;;;;;;5.47;4.80;;;;;;;;;;4969930;28;20050;-69
2022/10/01 02:10:35;;;;;;;6.53;5.05;;;;;;;;;;4986605;28;20100;-68
2022/10/01 02:13:11;;;;;;;4.82;4.30;;;;;;;;;;4986377;28;20094;-67
2022/10/01 02:16:08;;;;;;;4.53;4.13;;;;;;;;;;4983798;28;20074;-68
2022/10/01 02:18:53;;;;;;;6.60;5.13;;;;;;;;;;4985060;28;20082;-69
2022/10/01 02:21:39;;;;;;;5.00;3.97;;;;;;;;;;4987027;28;20050;-68
2022/10/01 02:24:12;;;;;;;4.75;4.25;;;;;;;;;;4971651;28;20469;-69
2022/10/01 02:26:40;;;;;;;6.10;4.55;;;;;;;;;;4985947;28;20077;-70
2022/10/01 02:29:07;;;;;;;4.90;3.78;;;;;;;;;;4986573;28;20495;-69
2022/10/01 02:31:34;;;;;;;4.60;3.70;;;;;;;;;;4967554;28;20108;-70
2022/10/01 02:34:03;;;;;;;4.28;3.88;;;;;;;;;;4986480;28;20054;-69
2022/10/01 02:36:30;;;;;;;5.65;3.97;;;;;;;;;;4964711;28;20086;-69
2022/10/01 02:38:56;;;;;;;4.88;4.30;;;;;;;;;;4970275;28;20050;-68
2022/10/01 02:41:29;;;;;;;4.57;3.97;;;;;;;;;;4984447;28;20046;-69
2022/10/01 02:44:00;;;;;;;3.50;3.20;;;;;;;;;;4969296;28;20061;-69
2022/10/01 02:46:31;;;;;;;4.47;4.07;;;;;;;;;;4982452;28;20100;-68
2022/10/01 02:49:01;;;;;;;4.50;3.78;;;;;;;;;;4985680;28;20054;-70
2022/10/01 02:51:45;;;;;;;4.97;3.92;;;;;;;;;;4987697;28;20548;-69
2022/10/01 02:54:22;;;;;;;6.50;4.13;;;;;;;;;;4986000;28;20441;-69
2022/10/01 02:59:34;;;;;;;4.75;3.63;;;;;;;;;;4970906;28;20054;-69
2022/10/01 03:02:00;;;;;;;5.65;3.70;;;;;;;;;;4984257;28;20104;-67
2022/10/01 03:04:27;;;;;;;5.78;3.85;;;;;;;;;;4985665;28;20042;-69
2022/10/01 03:06:54;;;;;;;3.45;3.15;;;;;;;;;;4987331;28;20469;-69
2022/10/01 03:09:20;;;;;;;4.05;3.20;;;;;;;;;;4980649;28;20537;-69
2022/10/01 03:11:47;;;;;;;6.15;3.50;;;;;;;;;;4986583;28;20096;-70
2022/10/01 03:14:14;;;;;;;3.47;2.80;;;;;;;;;;4985155;28;20093;-67
2022/10/01 03:16:40;;;;;;;3.53;3.20;;;;;;;;;;4987194;28;20046;-69
2022/10/01 03:19:07;;;;;;;9.63;4.93;;;;;;;;;;4985176;28;20090;-68
2022/10/01 03:21:33;;;;;;;4.57;3.05;;;;;;;;;;4986982;28;20104;-69
2022/10/01 03:24:01;;;;;;;3.67;3.20;;;;;;;;;;4983808;28;20109;-69
2022/10/01 03:26:27;;;;;;;3.13;2.90;;;;;;;;;;4987815;28;20109;-68
2022/10/01 03:28:54;;;;;;;3.72;3.08;;;;;;;;;;4985655;28;20058;-69
2022/10/01 03:31:21;;;;;;;3.20;2.88;;;;;;;;;;4985358;28;20077;-68
2022/10/01 03:33:47;;;;;;;3.15;2.85;;;;;;;;;;4986136;28;20046;-69
2022/10/01 03:36:14;;;;;;;4.22;3.10;;;;;;;;;;4985105;28;20085;-69
2022/10/01 03:38:41;;;;;;;4.38;2.97;;;;;;;;;;4985937;28;20046;-68
2022/10/01 03:41:08;;;;;;;4.32;3.28;;;;;;;;;;4984867;28;20231;-69
2022/10/01 03:43:34;;;;;;;3.25;2.95;;;;;;;;;;4986818;28;20101;-68
2022/10/01 03:46:01;;;;;;;4.85;3.13;;;;;;;;;;4984323;28;20086;-68
2022/10/01 03:48:28;;;;;;;3.42;2.92;;;;;;;;;;4986411;28;20054;-67
2022/10/01 03:50:56;;;;;;;5.95;3.33;;;;;;;;;;4982347;28;20050;-68
2022/10/01 03:53:25;;;;;;;4.47;3.40;;;;;;;;;;4984809;28;20113;-69
2022/10/01 03:55:52;;;;;;;3.20;2.90;;;;;;;;;;4984397;28;20078;-69
2022/10/01 03:58:19;;;;;;;3.83;3.28;;;;;;;;;;4986004;28;20061;-68
2022/10/01 04:00:46;;;;;;;3.25;2.95;;;;;;;;;;4985100;28;20043;-69
2022/10/01 04:03:14;;;;;;;3.92;3.28;;;;;;;;;;4984244;28;20117;-69
2022/10/01 04:05:41;;;;;;;4.50;3.28;;;;;;;;;;4985522;28;20082;-69
2022/10/01 04:08:08;;;;;;;3.10;2.80;;;;;;;;;;4984928;28;20159;-69
2022/10/01 04:10:35;;;;;;;4.50;2.75;;;;;;;;;;4986421;28;20047;-69
2022/10/01 04:13:02;;;;;;;5.10;4.60;;;;;;;;;;4984570;28;20480;-69
2022/10/01 04:15:28;;;;;;;7.03;5.47;;;;;;;;;;4985959;28;20046;-69
2022/10/01 04:17:56;;;;;;;11.25;7.88;;;;;;;;;;4990252;28;20501;-69
2022/10/01 04:20:22;;;;;;;11.38;9.70;;;;;;;;;;4993153;28;20045;-68
2022/10/01 04:22:49;;;;;;;14.30;11.93;;;;;;;;;;4986554;28;20082;-68
2022/10/01 04:25:16;;;;;;;14.75;12.75;;;;;;;;;;4991498;28;20081;-69
2022/10/01 04:27:54;;;;;;;15.32;11.90;;;;;;;;;;4990968;28;20050;-67
2022/10/01 04:30:20;;;;;;;13.95;10.85;;;;;;;;;;4971084;28;20046;-69
2022/10/01 04:32:47;;;;;;;16.15;10.88;;;;;;;;;;4989576;28;20055;-69
2022/10/01 04:35:14;;;;;;;12.23;8.95;;;;;;;;;;4988506;28;20038;-69
2022/10/01 04:37:41;;;;;;;9.98;6.82;;;;;;;;;;4990280;28;20492;-67
2022/10/01 04:40:09;;;;;;;8.80;6.43;;;;;;;;;;4987949;28;20050;-69
2022/10/01 04:42:41;;;;;;;6.40;5.35;;;;;;;;;;4986851;28;20054;-68
2022/10/01 04:45:09;;;;;;;5.78;4.32;;;;;;;;;;4985876;28;20098;-69
2022/10/01 04:47:35;;;;;;;4.97;3.25;;;;;;;;;;4988758;28;20054;-69
2022/10/01 04:50:03;;;;;;;3.83;2.60;;;;;;;;;;4984945;28;20058;-69
2022/10/01 04:52:30;;;;;;;3.20;2.28;;;;;;;;;;4989314;28;20147;-68
2022/10/01 04:54:56;;;;;;;3.05;2.17;;;;;;;;;;4988596;28;20039;-69
2022/10/01 04:57:23;;;;;;;2.08;1.90;;;;;;;;;;4988962;28;20116;-70
2022/10/01 04:59:50;;;;;;;2.50;2.05;;;;;;;;;;4989422;28;20050;-68
2022/10/01 05:02:16;;;;;;;3.63;2.67;;;;;;;;;;4988992;28;20081;-69
2022/10/01 05:04:43;;;;;;;2.72;2.50;;;;;;;;;;4989806;28;20046;-69
2022/10/01 05:07:11;;;;;;;2.38;2.17;;;;;;;;;;4989324;28;20050;-69
2022/10/01 05:09:43;;;;;;;2.25;1.98;;;;;;;;;;4987599;28;20057;-69
2022/10/01 05:12:10;;;;;;;4.45;2.22;;;;;;;;;;4984352;28;20108;-69
2022/10/01 05:14:37;;;;;;;1.88;1.75;;;;;;;;;;4971676;28;20129;-69
2022/10/01 05:17:05;;;;;;;2.03;1.70;;;;;;;;;;4987881;28;20050;-68
2022/10/01 05:19:32;;;;;;;2.25;1.92;;;;;;;;;;4989251;28;20104;-69
2022/10/01 05:21:59;;;;;;;2.88;2.05;;;;;;;;;;4987855;28;20113;-69
2022/10/01 05:24:25;;;;;;;3.58;1.70;;;;;;;;;;4968397;28;20054;-69
2022/10/01 05:26:53;;;;;;;2.08;1.85;;;;;;;;;;4988060;28;20104;-69
2022/10/01 05:29:19;;;;;;;2.75;2.28;;;;;;;;;;4987801;28;20537;-69
2022/10/01 05:31:46;;;;;;;2.65;1.95;;;;;;;;;;4989381;28;20069;-70
2022/10/01 05:34:13;;;;;;;3.97;2.03;;;;;;;;;;4987600;28;20488;-70
2022/10/01 05:36:40;;;;;;;2.78;1.75;;;;;;;;;;4989145;28;20461;-69
2022/10/01 05:39:06;;;;;;;3.03;2.03;;;;;;;;;;4985554;28;20085;-69
2022/10/01 05:41:33;;;;;;;2.67;1.92;;;;;;;;;;4988640;28;20092;-68
2022/10/01 05:44:01;;;;;;;5.88;2.17;;;;;;;;;;4987265;28;20050;-68
2022/10/01 05:46:28;;;;;;;2.65;1.30;;;;;;;;;;4988982;28;20089;-69
2022/10/01 05:48:54;;;;;;;2.33;1.60;;;;;;;;;;4984675;28;20415;-70
2022/10/01 05:51:21;;;;;;;2.58;1.60;;;;;;;;;;4988485;28;20046;-69
2022/10/01 05:53:48;;;;;;;1.90;1.30;;;;;;;;;;4983410;28;20047;-68
2022/10/01 05:56:16;;;;;;;1.30;1.20;;;;;;;;;;4987256;28;20098;-69
2022/10/01 05:58:42;;;;;;;1.52;1.40;;;;;;;;;;4981891;28;20525;-68
2022/10/01 06:01:09;;;;;;;1.42;1.20;;;;;;;;;;4986304;28;20088;-68
2022/10/01 06:03:37;;;;;;;1.33;1.00;;;;;;;;;;4986199;28;20046;-67
2022/10/01 06:06:04;;;;;;;1.55;1.40;;;;;;;;;;4985166;28;20051;-69
2022/10/01 06:08:35;;;;;;;2.20;1.20;;;;;;;;;;4985639;28;20054;-68
2022/10/01 06:11:03;;;;;;;4.95;1.50;;;;;;;;;;4984399;28;20497;-68
2022/10/01 06:13:29;;;;;;;4.07;2.60;;;;;;;;;;4983351;28;20481;-69
2022/10/01 06:15:56;;;;;;;2.53;1.50;;;;;;;;;;4984652;28;20038;-65
2022/10/01 06:18:23;;;;;;;6.63;1.50;;;;;;;;;;4986108;28;20089;-68
2022/10/01 06:20:49;;;;;;;3.70;1.83;;;;;;;;;;4982337;28;20071;-68
2022/10/01 06:23:16;;;;;;;2.17;1.40;;;;;;;;;;4985494;28;20421;-68
2022/10/01 06:25:43;;;;;;;4.10;1.58;;;;;;;;;;4985047;28;20432;-68
2022/10/01 06:28:11;;;;;;;1.40;1.25;;;;;;;;;;4985907;28;20058;-68
2022/10/01 06:30:38;;;;;;;2.10;1.40;;;;;;;;;;4984476;28;20131;-68
2022/10/01 06:33:13;;;;;;;1.33;1.10;;;;;;;;;;4985524;28;21270;-68
2022/10/01 06:35:42;;;;;;;1.58;1.05;;;;;;;;;;4985795;28;20046;-68
2022/10/01 06:38:09;;;;;;;1.42;1.30;;;;;;;;;;4983320;28;20189;-68
2022/10/01 06:40:36;;;;;;;3.80;1.42;;;;;;;;;;4986106;28;20334;-66
2022/10/01 06:43:03;;;;;;;3.25;1.70;;;;;;;;;;4980837;28;20058;-69
2022/10/01 06:45:30;;;;;;;2.83;1.67;;;;;;;;;;4985432;28;20520;-69
2022/10/01 06:48:01;;;;;;;2.38;1.50;;;;;;;;;;4985109;28;20131;-68
2022/10/01 06:50:29;;;;;;;1.58;1.15;;;;;;;;;;4984499;28;20421;-70
2022/10/01 06:52:56;;;;;;;2.70;2.38;;;;;;;;;;4984553;28;20097;-69
2022/10/01 06:55:27;;;;;;;2.65;2.05;;;;;;;;;;4984330;28;20058;-67
2022/10/01 06:57:55;;;;;;;11.60;5.07;;;;;;;;;;4984940;28;20687;-66
2022/10/01 07:00:22;;;;;;;7.50;4.72;;;;;;;;;;4984759;28;20113;-68
2022/10/01 07:02:48;;;;;;;5.93;4.00;;;;;;;;;;4985837;28;20047;-66
2022/10/01 07:05:15;;;;;;;3.97;3.10;;;;;;;;;;4987910;28;20077;-65
2022/10/01 07:07:47;;;;;;;3.38;2.80;;;;;;;;;;4987254;28;20490;-68
2022/10/01 07:10:14;;;;;;;4.78;2.70;;;;;;;;;;4985069;28;20051;-67
2022/10/01 07:12:41;;;;;;;3.67;2.10;;;;;;;;;;4986552;28;20050;-66
2022/10/01 07:15:08;;;;;;;3.60;1.90;;;;;;;;;;4985823;28;20050;-66
2022/10/01 07:17:41;;;;;;;2.53;1.98;;;;;;;;;;4986637;28;20061;-67
2022/10/01 07:20:08;;;;;;;3.90;2.70;;;;;;;;;;4985297;28;20050;-66
2022/10/01 07:22:35;;;;;;;2.30;2.10;;;;;;;;;;4984836;28;20489;-66
2022/10/01 07:25:02;;;;;;;3.97;2.20;;;;;;;;;;4983049;28;20113;-64
2022/10/01 07:27:29;;;;;;;3.70;2.72;;;;;;;;;;4984577;28;20045;-68
2022/10/01 07:29:57;;;;;;;3.42;2.40;;;;;;;;;;4987763;28;20046;-65
2022/10/01 07:32:24;;;;;;;4.65;2.55;;;;;;;;;;4984509;28;20541;-66
2022/10/01 07:34:51;;;;;;;5.57;2.75;;;;;;;;;;4985275;28;20468;-66
2022/10/01 07:37:18;;;;;;;3.80;2.75;;;;;;;;;;4985001;28;20085;-63
2022/10/01 07:39:44;;;;;;;4.80;2.92;;;;;;;;;;4986288;28;20576;-65
2022/10/01 07:42:11;;;;;;;3.85;2.70;;;;;;;;;;4980944;28;20050;-65
2022/10/01 07:44:37;;;;;;;5.13;2.80;;;;;;;;;;4984343;28;20094;-65
2022/10/01 07:47:04;;;;;;;4.75;2.63;;;;;;;;;;4968118;28;20051;-64
2022/10/01 07:49:30;;;;;;;5.22;3.55;;;;;;;;;;4985173;28;20058;-66
2022/10/01 07:51:57;;;;;;;4.43;2.80;;;;;;;;;;4985540;28;20077;-66
2022/10/01 07:54:24;;;;;;;3.67;2.50;;;;;;;;;;4984838;28;20082;-64
2022/10/01 07:56:54;;;;;;;3.80;2.80;;;;;;;;;;4986769;28;20505;-66
2022/10/01 07:59:22;;;;;;;2.50;2.30;;;;;;;;;;4983241;28;20448;-66
2022/10/01 08:01:50;;;;;;;4.35;3.10;;;;;;;;;;4982360;28;20101;-64
2022/10/01 08:07:04;;;;;;;4.40;2.60;;;;;;;;;;4984573;28;20050;-66
2022/10/01 08:09:30;;;;;;;4.22;3.20;;;;;;;;;;4982566;28;20050;-65
2022/10/01 08:11:57;;;;;;;7.43;4.03;;;;;;;;;;4984124;28;20046;-65
2022/10/01 08:14:24;;;;;;;4.53;3.20;;;;;;;;;;4986123;28;20390;-67
2022/10/01 08:16:54;;;;;;;4.38;2.88;;;;;;;;;;4979677;28;20081;-66
2022/10/01 08:19:21;;;;;;;6.10;2.72;;;;;;;;;;4985737;28;20505;-65
2022/10/01 08:21:47;;;;;;;3.17;2.72;;;;;;;;;;4986366;28;20524;-66
2022/10/01 08:24:14;;;;;;;2.97;2.40;;;;;;;;;;4985915;28;20055;-70
2022/10/01 08:26:41;;;;;;;3.63;3.00;;;;;;;;;;4979380;28;20084;-77
2022/10/01 08:29:07;;;;;;;3.00;2.33;;;;;;;;;;4988181;28;20057;-66
2022/10/01 08:31:39;;;;;;;2.72;2.13;;;;;;;;;;4985663;28;20050;-67
2022/10/01 08:34:06;;;;;;;4.20;2.63;;;;;;;;;;4984912;28;20456;-66
2022/10/01 08:36:34;;;;;;;4.07;2.53;;;;;;;;;;4988272;28;20046;-65
2022/10/01 08:39:01;;;;;;;3.45;2.78;;;;;;;;;;4985482;28;20517;-67
2022/10/01 08:41:41;;;;;;;8.45;4.38;;;;;;;;;;4985888;28;20077;-66
2022/10/01 08:44:12;;;;;;;5.90;3.53;;;;;;;;;;4983486;28;20046;-66
2022/10/01 08:46:41;;;;;;;5.00;3.08;;;;;;;;;;4982947;28;20038;-66
2022/10/01 08:49:19;;;;;;;5.35;4.03;;;;;;;;;;4985235;28;20085;-67
2022/10/01 08:51:55;;;;;;;4.28;3.42;;;;;;;;;;4982497;28;20465;-64
2022/10/01 08:54:38;;;;;;;4.85;3.17;;;;;;;;;;4984491;28;20189;-65
2022/10/01 08:57:11;;;;;;;4.43;2.38;;;;;;;;;;4982434;28;20070;-66
2022/10/01 08:59:42;;;;;;;;;;;;;;;;;;4984031;28;20074;-64
2022/10/01 09:02:28;;;;;;;3.10;2.80;;;;;;;;;;4982861;28;19925;-65
2022/10/01 09:05:03;;;;;;;3.20;2.78;;;;;;;;;;4973993;28;20117;-65
2022/10/01 09:07:44;;;;;;;4.30;2.83;;;;;;;;;;4984214;28;20046;-73
2022/10/01 09:10:39;;;;;;;3.65;2.70;;;;;;;;;;4968218;28;20458;-68
2022/10/01 09:13:44;;;;;;;6.28;4.50;;;;;;;;;;4981245;28;20054;-69
2022/10/01 09:16:40;;;;;;;11.05;9.07;;;;;;;;;;4988431;28;20076;-71
2022/10/01 09:19:13;;;;;;;7.28;4.63;;;;;;;;;;4990954;28;20046;-72
2022/10/01 09:21:39;;;;;;;;;;;;;;;;;;4983517;28;20047;-72
2022/10/01 09:24:13;;;;;;;4.95;2.72;;;;;;;;;;4991159;28;19925;-73
2022/10/01 09:26:47;;;;;;;3.38;2.88;;;;;;;;;;4982573;28;20413;-74
2022/10/01 09:29:38;;;;;;;5.00;2.92;;;;;;;;;;4986592;28;20070;-73
2022/10/01 09:32:06;;;;;;;3.83;2.60;;;;;;;;;;4985574;28;20498;-74
2022/10/01 09:34:38;;;;;;;2.30;2.10;;;;;;;;;;4961620;28;20050;-72
2022/10/01 09:37:25;;;;;;;3.45;2.40;;;;;;;;;;4982356;28;20085;-70
2022/10/01 09:40:22;;;;;;;3.40;2.33;;;;;;;;;;4988516;28;20057;-74
2022/10/01 09:43:00;;;;;;;3.05;2.10;;;;;;;;;;4987673;28;20450;-78
2022/10/01 09:45:27;;;;;;;3.22;2.92;;;;;;;;;;4967643;28;20058;-74
2022/10/01 09:47:57;;;;;;;3.67;2.30;;;;;;;;;;4973449;28;20050;-70
2022/10/01 09:50:37;;;;;;;2.30;2.13;;;;;;;;;;4987035;28;20105;-76
2022/10/01 09:53:04;;;;;;;3.30;2.40;;;;;;;;;;4967191;28;20120;-73
2022/10/01 09:55:41;;;;;;;3.88;2.65;;;;;;;;;;4981289;28;20494;-70
2022/10/01 09:58:13;;;;;;;2.40;2.17;;;;;;;;;;4986989;28;20534;-72
2022/10/01 10:00:40;;;;;;;3.15;2.40;;;;;;;;;;4990125;28;20053;-73
2022/10/01 10:03:06;;;;;;;3.22;2.13;;;;;;;;;;4985302;28;20058;-70
2022/10/01 10:05:41;;;;;;;2.65;2.03;;;;;;;;;;4987754;28;20058;-69
2022/10/01 10:08:33;;;;;;;2.33;2.13;;;;;;;;;;4967530;28;20054;-71
2022/10/01 10:11:01;;;;;;;2.97;1.90;;;;;;;;;;4983958;28;20058;-71
2022/10/01 10:13:37;;;;;;;4.15;1.98;;;;;;;;;;4985984;28;20046;-71
2022/10/01 10:16:13;;;;;;;4.65;3.58;;;;;;;;;;4983951;28;20465;-68
2022/10/01 10:18:40;;;;;;;3.28;2.60;;;;;;;;;;4980911;28;20469;-70
2022/10/01 10:21:15;;;;;;;4.93;3.10;;;;;;;;;;4985821;28;20054;-67
2022/10/01 10:23:52;;;;;;;4.50;2.65;;;;;;;;;;4986084;28;20146;-69
2022/10/01 10:26:33;;;;;;;3.00;2.60;;;;;;;;;;4986035;28;20065;-67
2022/10/01 10:29:01;;;;;;;3.33;2.38;;;;;;;;;;4985746;28;20058;-72
2022/10/01 10:31:35;;;;;;;2.97;2.20;;;;;;;;;;4985559;28;20054;-74
2022/10/01 10:34:05;;;;;;;2.30;1.90;;;;;;;;;;4986226;28;20058;-72
2022/10/01 10:36:33;;;;;;;2.65;2.17;;;;;;;;;;4982653;28;20085;-72
2022/10/01 10:39:02;;;;;;;4.32;2.38;;;;;;;;;;4982176;28;20081;-72
2022/10/01 10:41:29;;;;;;;3.47;2.25;;;;;;;;;;4970570;28;20116;-74
2022/10/01 10:44:03;;;;;;;1.60;1.50;;;;;;;;;;4984172;28;20510;-68
2022/10/01 10:46:32;;;;;;;2.40;1.17;;;;;;;;;;4985106;28;20050;-68
2022/10/01 10:49:12;;;;;;;1.52;1.27;;;;;;;;;;4984945;28;20679;-68
2022/10/01 10:51:43;;;;;;;0.93;0.90;;;;;;;;;;4981871;28;20455;-68
2022/10/01 10:54:19;;;;;;;1.40;1.15;;;;;;;;;;4984641;28;20092;-68
2022/10/01 10:57:01;;;;;;;1.45;0.93;;;;;;;;;;4985376;28;20038;-68
2022/10/01 10:59:30;;;;;;;0.95;0.80;;;;;;;;;;4980469;28;20047;-68
2022/10/01 11:02:01;;;;;;;1.42;0.80;;;;;;;;;;4983873;28;20098;-67
2022/10/01 11:04:37;;;;;;;0.95;0.82;;;;;;;;;;4983408;28;20054;-68
2022/10/01 11:07:03;;;;;;;1.08;0.60;;;;;;;;;;4981298;28;20078;-68
2022/10/01 11:09:42;;;;;;;0.70;0.70;;;;;;;;;;4984727;28;20105;-68
2022/10/01 11:12:36;;;;;;;2.50;1.73;;;;;;;;;;4984252;28;20656;-67
2022/10/01 11:15:31;;;;;;;0.60;0.60;;;;;;;;;;4979677;28;20065;-68
2022/10/01 11:18:25;;;;;;;2.78;1.10;;;;;;;;;;4983265;28;20267;-68
2022/10/01 11:21:11;;;;;;;0.70;0.63;;;;;;;;;;4984317;28;20101;-68
2022/10/01 11:24:02;;;;;;;0.90;0.77;;;;;;;;;;4978536;28;20124;-75
2022/10/01 11:27:10;;;;;;;0.60;0.55;;;;;;;;;;4983167;28;20051;-70
2022/10/01 11:29:49;;;;;;;2.45;0.80;;;;;;;;;;4958579;28;20103;-70
2022/10/01 11:32:36;;;;;;;0.98;0.82;;;;;;;;;;4981963;28;20178;-71
2022/10/01 11:35:27;;;;;;;0.95;0.80;;;;;;;;;;4979793;28;20117;-73
2022/10/01 11:38:31;;;;;;;1.90;0.98;;;;;;;;;;4984499;28;20054;-72
2022/10/01 11:41:18;;;;;;;0.70;0.68;;;;;;;;;;4981116;28;20055;-72
2022/10/01 11:43:56;;;;;;;0.73;0.60;;;;;;;;;;4981555;28;20050;-75
2022/10/01 11:46:32;;;;;;;1.50;0.90;;;;;;;;;;4983637;28;20058;-68
2022/10/01 11:49:01;;;;;;;1.30;0.63;;;;;;;;;;4983406;28;20055;-71
2022/10/01 11:51:31;;;;;;;0.60;0.60;;;;;;;;;;4984024;28;20749;-67
2022/10/01 11:54:00;;;;;;;0.98;0.57;;;;;;;;;;4967206;28;20136;-67
2022/10/01 11:59:36;;;;;;;2.78;1.30;;;;;;;;;;4985299;28;20046;-67
2022/10/01 12:02:27;;;;;;;1.25;0.70;;;;;;;;;;4981085;28;20046;-67
2022/10/01 12:05:24;;;;;;;1.75;1.02;;;;;;;;;;4984467;28;20108;-69
2022/10/01 12:08:28;;;;;;;1.80;1.33;;;;;;;;;;4968120;28;20398;-67
2022/10/01 12:11:22;;;;;;;0.75;0.73;;;;;;;;;;4941715;29;20047;-75
2022/10/01 12:13:55;;;;;;;1.13;0.82;;;;;;;;;;4984554;28;20046;-77
2022/10/01 12:19:35;;;;;;;1.67;0.95;;;;;;;;;;4979855;28;20100;-73
2022/10/01 12:22:37;;;;;;;2.65;0.90;;;;;;;;;;4985138;28;20050;-69
2022/10/01 12:25:12;;;;;;;2.33;1.77;;;;;;;;;;4925979;29;20063;-72
2022/10/01 12:27:42;;;;;;;0.95;0.80;;;;;;;;;;4977938;28;20074;-68
2022/10/01 12:30:18;;;;;;;2.17;1.10;;;;;;;;;;4985579;28;20453;-71
2022/10/01 12:33:00;;;;;;;1.23;0.80;;;;;;;;;;4985001;28;20081;-72
2022/10/01 12:35:27;;;;;;;0.85;0.70;;;;;;;;;;4989213;28;20146;-73
2022/10/01 12:38:07;;;;;;;1.75;0.40;;;;;;;;;;4986107;28;20042;-70
2022/10/01 12:40:56;;;;;;;1.10;0.60;;;;;;;;;;4980362;28;20081;-67
2022/10/01 12:43:49;;;;;;;0.77;0.60;;;;;;;;;;4986438;28;20097;-67
2022/10/01 12:46:31;;;;;;;0.60;0.60;;;;;;;;;;4988368;28;20050;-68
2022/10/01 12:49:35;;;;;;;0.77;0.60;;;;;;;;;;4989428;28;20050;-67
2022/10/01 12:52:14;;;;;;;;;;;;;;;;;;4980989;28;20085;-65
2022/10/01 12:55:00;;;;;;;1.40;0.52;;;;;;;;;;4988151;28;19929;-66
2022/10/01 12:57:35;;;;;;;0.88;0.60;;;;;;;;;;4988017;28;20050;-66
2022/10/01 13:00:25;;;;;;;0.70;0.70;;;;;;;;;;4991208;28;20050;-66
2022/10/01 13:03:35;;;;;;;1.08;0.70;;;;;;;;;;4981885;28;20924;-71
2022/10/01 13:06:32;;;;;;;1.70;1.10;;;;;;;;;;4961949;28;20054;-73
2022/10/01 13:09:40;;;;;;;1.27;0.70;;;;;;;;;;4980180;28;20468;-70
2022/10/01 13:12:42;;;;;;;0.98;0.57;;;;;;;;;;4965725;28;20050;-68
2022/10/01 13:15:19;;;;;;;0.52;0.52;;;;;;;;;;4982819;28;20077;-66
2022/10/01 13:18:01;;;;;;;0.47;0.40;;;;;;;;;;4972969;28;20057;-65
2022/10/01 13:20:39;;;;;;;0.80;0.52;;;;;;;;;;4986496;28;20057;-75
2022/10/01 13:23:22;;;;;;;0.70;0.70;;;;;;;;;;4986698;28;20053;-69
2022/10/01 13:26:08;;;;;;;0.82;0.65;;;;;;;;;;4985761;28;20963;-68
2022/10/01 13:29:11;;;;;;;0.80;0.50;;;;;;;;;;4987815;28;20126;-70
2022/10/01 13:31:58;;;;;;;0.40;0.40;;;;;;;;;;4965773;28;20051;-72
2022/10/01 13:34:35;;;;;;;0.70;0.70;;;;;;;;;;4988148;28;20054;-65
2022/10/01 13:37:15;;;;;;;0.60;0.57;;;;;;;;;;4986236;28;20519;-65
2022/10/01 13:39:43;;;;;;;1.65;0.80;;;;;;;;;;4985595;28;20593;-66
2022/10/01 13:42:23;;;;;;;2.83;1.08;;;;;;;;;;4986181;28;20476;-66
2022/10/01 13:44:56;;;;;;;1.98;1.23;;;;;;;;;;4983622;28;20466;-67
2022/10/01 13:47:23;;;;;;;;;;;;;;;;;;4988984;28;20046;-66
2022/10/01 13:50:03;;;;;;;1.77;1.23;;;;;;;;;;4982892;28;19926;-66
2022/10/01 13:52:30;;;;;;;1.52;0.82;;;;;;;;;;4985732;28;20050;-73
2022/10/01 13:54:58;;;;;;;1.80;1.40;;;;;;;;;;4959811;28;20116;-71
2022/10/01 13:57:43;;;;;;;2.20;1.42;;;;;;;;;;4982271;28;20418;-72
2022/10/01 14:00:16;;;;;;;7.43;3.47;;;;;;;;;;4986797;28;20050;-73
2022/10/01 14:02:44;;;;;;;10.60;4.00;;;;;;;;;;4983152;28;20109;-71
2022/10/01 14:05:26;;;;;;;13.63;6.05;;;;;;;;;;4984991;28;20054;-75
2022/10/01 14:08:05;;;;;;;14.80;6.65;;;;;;;;;;4986871;28;20437;-72
2022/10/01 14:16:15;;;;;;;1.10;0.60;;;;;;;;;;4969791;28;20169;-68
2022/10/01 14:18:43;;;;;;;0.98;0.80;;;;;;;;;;4980188;28;20422;-70
2022/10/01 14:21:29;;;;;;;1.20;0.60;;;;;;;;;;4983487;28;20102;-65
2022/10/01 14:24:29;;;;;;;0.55;0.50;;;;;;;;;;4983148;28;20050;-65
2022/10/01 14:26:58;;;;;;;2.03;0.70;;;;;;;;;;4985313;28;20062;-65
2022/10/01 14:29:34;;;;;;;2.00;0.60;;;;;;;;;;4983566;28;20054;-65
2022/10/01 14:32:36;;;;;;;0.68;0.60;;;;;;;;;;4984376;28;20055;-65
2022/10/01 14:35:02;;;;;;;1.08;0.70;;;;;;;;;;4984554;28;20055;-65
2022/10/01 14:37:29;;;;;;;1.33;0.77;;;;;;;;;;4985112;28;20054;-65
2022/10/01 14:40:22;;;;;;;1.23;0.70;;;;;;;;;;4984098;28;20055;-65
2022/10/01 14:42:59;;;;;;;1.35;0.40;;;;;;;;;;4978539;28;20099;-65
2022/10/01 14:45:27;;;;;;;0.90;0.80;;;;;;;;;;4983765;28;20100;-65
2022/10/01 14:48:01;;;;;;;2.63;0.80;;;;;;;;;;4967826;28;20137;-65
2022/10/01 14:50:27;;;;;;;1.02;0.30;;;;;;;;;;4983318;28;20066;-65
2022/10/01 14:52:54;;;;;;;2.75;0.80;;;;;;;;;;4984112;28;20046;-65
2022/10/01 14:55:21;;;;;;;2.50;0.82;;;;;;;;;;4983705;28;20179;-65
2022/10/01 14:57:50;;;;;;;0.63;0.43;;;;;;;;;;4983407;28;20082;-65
2022/10/01 15:00:26;;;;;;;0.90;0.50;;;;;;;;;;4975571;28;20060;-65
2022/10/01 15:03:02;;;;;;;1.50;0.30;;;;;;;;;;4982519;28;20465;-65
2022/10/01 15:05:33;;;;;;;1.73;0.50;;;;;;;;;;4982859;28;20058;-65
2022/10/01 15:08:10;;;;;;;0.47;0.28;;;;;;;;;;4981981;28;20467;-65
2022/10/01 15:10:43;;;;;;;0.80;0.50;;;;;;;;;;4983715;28;20054;-65
2022/10/01 15:13:16;;;;;;;;;;;;;;;;;;4981287;28;20054;-65
2022/10/01 15:15:42;;;;;;;1.00;0.70;;;;;;;;;;4981783;28;19976;-65
2022/10/01 15:18:12;;;;;;;1.70;0.50;;;;;;;;;;4982939;28;20580;-65
2022/10/01 15:20:47;;;;;;;2.92;1.08;;;;;;;;;;4982753;28;20103;-64
2022/10/01 15:23:14;;;;;;;1.08;0.80;;;;;;;;;;4980934;28;20486;-64
2022/10/01 15:25:42;;;;;;;0.65;0.55;;;;;;;;;;4963388;28;20201;-66
2022/10/01 15:28:20;;;;;;;1.23;0.60;;;;;;;;;;4981238;28;20046;-66
2022/10/01 15:30:47;;;;;;;1.45;0.80;;;;;;;;;;4982035;28;20078;-66
2022/10/01 15:33:26;;;;;;;1.95;0.90;;;;;;;;;;4964502;28;20125;-65
2022/10/01 15:36:16;;;;;;;2.08;0.60;;;;;;;;;;4978334;28;20077;-67